createdAt,value
2022-11-17T00:02:09.392Z,96053.84
2022-11-17T00:05:10.940Z,96053.06
2022-11-17T00:08:12.473Z,96055.06
2022-11-17T00:11:14.154Z,96054.38
2022-11-17T00:14:33.696Z,96051.84
2022-11-17T00:17:35.249Z,96054.75
2022-11-17T00:20:59.197Z,96043.94
2022-11-17T00:24:00.786Z,96050.00
2022-11-17T00:27:02.340Z,96047.56
2022-11-17T00:30:04.379Z,96052.22
2022-11-17T00:33:24.646Z,96042.81
2022-11-17T00:36:26.339Z,96060.09
2022-11-17T00:39:27.884Z,96061.97
2022-11-17T00:42:34.449Z,96052.81
2022-11-17T00:45:35.967Z,96057.88
2022-11-17T00:48:37.548Z,96045.41
2022-11-17T00:51:39.189Z,96048.50
2022-11-17T00:54:40.795Z,96039.88
2022-11-17T00:57:42.383Z,96027.50
2022-11-17T01:00:45.038Z,96021.75
2022-11-17T01:03:46.744Z,96019.09
2022-11-17T01:06:49.275Z,96013.91
2022-11-17T01:09:50.917Z,96006.94
2022-11-17T01:12:52.575Z,96008.06
2022-11-17T01:15:54.128Z,96008.72
2022-11-17T01:18:55.987Z,96010.13
2022-11-17T01:21:57.545Z,96014.25
2022-11-17T01:24:59.104Z,96021.31
2022-11-17T01:28:00.667Z,96015.25
2022-11-17T01:31:03.956Z,96006.94
2022-11-17T01:34:06.075Z,96007.06
2022-11-17T01:37:27.941Z,96006.28
2022-11-17T01:40:29.532Z,96012.03
2022-11-17T01:43:37.276Z,96004.84
2022-11-17T01:46:39.007Z,96012.69
2022-11-17T01:49:40.624Z,96016.13
2022-11-17T01:52:42.181Z,96019.56
2022-11-17T01:55:44.876Z,96013.91
2022-11-17T01:58:47.039Z,96013.25
2022-11-17T02:01:57.856Z,96009.50
2022-11-17T02:05:02.903Z,96009.81
2022-11-17T02:08:05.137Z,96006.06
2022-11-17T02:11:08.802Z,96006.19
2022-11-17T02:14:11.405Z,96007.59
2022-11-17T02:17:14.440Z,96008.38
2022-11-17T02:20:45.580Z,96002.31
2022-11-17T02:23:55.987Z,96006.06
2022-11-17T02:27:17.060Z,96001.09
2022-11-17T02:30:19.318Z,95993.34
2022-11-17T02:33:23.959Z,95999.75
2022-11-17T02:36:28.272Z,95989.28
2022-11-17T02:39:40.688Z,95980.31
2022-11-17T02:43:01.936Z,95983.53
2022-11-17T02:46:14.701Z,95990.13
2022-11-17T02:49:18.623Z,95970.69
2022-11-17T02:52:20.242Z,95978.00
2022-11-17T02:55:21.816Z,95999.75
2022-11-17T02:58:23.360Z,95982.84
2022-11-17T03:01:37.057Z,95984.50
2022-11-17T03:04:38.633Z,95987.94
2022-11-17T03:08:09.709Z,95972.81
2022-11-17T03:11:11.255Z,95966.28
2022-11-17T03:14:12.781Z,95970.69
2022-11-17T03:17:16.165Z,95967.03
2022-11-17T03:20:44.184Z,95958.75
2022-11-17T03:23:55.919Z,95968.91
2022-11-17T03:26:58.753Z,95952.59
2022-11-17T03:30:00.984Z,95957.09
2022-11-17T03:33:05.291Z,95955.53
2022-11-17T03:36:08.193Z,95958.13
2022-11-17T03:39:13.953Z,95954.22
2022-11-17T03:42:23.192Z,95947.97
2022-11-17T03:45:24.739Z,95946.09
2022-11-17T03:48:29.961Z,95943.94
2022-11-17T03:51:31.551Z,95939.09
2022-11-17T03:54:33.389Z,95943.38
2022-11-17T03:57:43.998Z,95943.13
2022-11-17T04:00:46.018Z,95946.22
2022-11-17T04:03:48.044Z,95943.88
2022-11-17T04:06:55.668Z,95941.94
2022-11-17T04:09:57.204Z,95932.06
2022-11-17T04:13:17.370Z,95938.84
2022-11-17T04:16:18.848Z,95936.09
2022-11-17T04:19:20.364Z,95929.13
2022-11-17T04:22:21.888Z,95931.59
2022-11-17T04:25:43.348Z,95935.91
2022-11-17T04:28:49.294Z,95933.06
2022-11-17T04:31:50.801Z,95920.47
2022-11-17T04:34:52.291Z,95934.41
2022-11-17T04:37:53.786Z,95935.09
2022-11-17T04:41:19.064Z,95931.13
2022-11-17T04:44:27.851Z,95935.78
2022-11-17T04:47:29.383Z,95931.13
2022-11-17T04:50:31.049Z,95929.59
2022-11-17T04:53:32.788Z,95925.50
2022-11-17T04:56:34.636Z,95926.28
2022-11-17T04:59:36.823Z,95931.22
2022-11-17T05:02:38.495Z,95924.47
2022-11-17T05:05:40.076Z,95936.19
2022-11-17T05:08:41.885Z,95932.66
2022-11-17T05:12:02.194Z,95929.59
2022-11-17T05:15:03.871Z,95924.09
2022-11-17T05:18:05.396Z,95916.38
2022-11-17T05:21:07.691Z,95925.09
2022-11-17T05:24:09.321Z,95919.44
2022-11-17T05:27:10.850Z,95930.00
2022-11-17T05:30:12.671Z,95935.63
2022-11-17T05:33:14.245Z,95926.63
2022-11-17T05:36:15.804Z,95928.63
2022-11-17T05:39:17.510Z,95936.25
2022-11-17T05:42:19.474Z,95929.16
2022-11-17T05:45:21.016Z,95929.59
2022-11-17T05:48:22.583Z,95925.56
2022-11-17T05:51:24.430Z,95916.84
2022-11-17T05:54:27.015Z,95916.06
2022-11-17T05:57:29.114Z,95916.53
2022-11-17T06:00:30.728Z,95915.66
2022-11-17T06:03:34.103Z,95923.72
2022-11-17T06:06:36.431Z,95914.53
2022-11-17T06:09:39.456Z,95908.00
2022-11-17T06:12:40.978Z,95901.25
2022-11-17T06:15:42.529Z,95905.44
2022-11-17T06:18:45.424Z,95908.78
2022-11-17T06:22:10.551Z,95897.63
2022-11-17T06:25:09.105Z,95899.94
2022-11-17T06:28:11.332Z,95900.44
2022-11-17T06:31:13.243Z,95899.78
2022-11-17T06:34:14.767Z,95897.78
2022-11-17T06:37:16.277Z,95892.47
2022-11-17T06:40:17.977Z,95895.13
2022-11-17T06:43:19.536Z,95889.06
2022-11-17T06:46:21.099Z,95890.59
2022-11-17T06:49:22.691Z,95871.59
2022-11-17T06:52:24.979Z,95874.13
2022-11-17T06:55:26.736Z,95864.97
2022-11-17T06:58:29.542Z,95867.97
2022-11-17T07:01:31.318Z,95876.78
2022-11-17T07:04:32.944Z,95870.16
2022-11-17T07:07:34.553Z,95872.25
2022-11-17T07:10:37.437Z,95866.06
2022-11-17T07:13:39.485Z,95865.72
2022-11-17T07:16:41.662Z,95862.66
2022-11-17T07:19:43.276Z,95860.78
2022-11-17T07:22:45.061Z,95856.56
2022-11-17T07:25:46.774Z,95854.69
2022-11-17T07:28:48.445Z,95853.13
2022-11-17T07:31:50.048Z,95849.72
2022-11-17T07:34:51.839Z,95857.00
2022-11-17T07:37:57.132Z,95850.34
2022-11-17T07:41:00.259Z,95846.69
2022-11-17T07:44:01.943Z,95852.00
2022-11-17T07:47:03.670Z,95848.56
2022-11-17T07:50:06.140Z,95845.41
2022-11-17T07:53:08.006Z,95842.69
2022-11-17T07:56:10.418Z,95849.88
2022-11-17T07:59:17.173Z,95838.03
2022-11-17T08:02:21.718Z,95833.47
2022-11-17T08:05:24.728Z,95835.63
2022-11-17T08:08:26.526Z,95838.69
2022-11-17T08:11:28.745Z,95839.28
2022-11-17T08:14:30.401Z,95829.25
2022-11-17T08:17:32.726Z,95840.31
2022-11-17T08:20:34.483Z,95835.09
2022-11-17T08:23:36.290Z,95833.47
2022-11-17T08:26:37.944Z,95823.09
2022-11-17T08:29:39.631Z,95831.88
2022-11-17T08:32:46.565Z,95836.88
2022-11-17T08:35:48.206Z,95833.00
2022-11-17T08:38:49.831Z,95824.19
2022-11-17T08:41:51.926Z,95825.41
2022-11-17T08:44:53.594Z,95812.03
2022-11-17T08:47:56.043Z,95820.09
2022-11-17T08:50:57.937Z,95817.44
2022-11-17T08:53:59.912Z,95807.38
2022-11-17T08:57:01.637Z,95804.50
2022-11-17T09:00:03.930Z,95798.50
2022-11-17T09:03:09.382Z,95797.16
2022-11-17T09:06:12.463Z,95793.28
2022-11-17T09:09:16.094Z,95793.28
2022-11-17T09:12:18.061Z,95787.22
2022-11-17T09:15:20.006Z,95786.53
2022-11-17T09:18:21.585Z,95786.53
2022-11-17T09:21:23.205Z,95789.97
2022-11-17T09:24:26.841Z,95781.63
2022-11-17T09:27:28.496Z,95779.75
2022-11-17T09:30:30.101Z,95779.44
2022-11-17T09:33:36.939Z,95777.44
2022-11-17T09:36:39.384Z,95773.69
2022-11-17T09:39:41.173Z,95772.16
2022-11-17T09:42:43.038Z,95766.06
2022-11-17T09:45:44.593Z,95769.91
2022-11-17T09:48:52.376Z,95754.78
2022-11-17T09:51:54.154Z,95759.22
2022-11-17T09:54:59.729Z,95757.84
2022-11-17T09:58:05.551Z,95752.88
2022-11-17T10:01:10.860Z,95759.28
2022-11-17T10:04:13.297Z,95757.06
2022-11-17T10:07:14.873Z,95760.59
2022-11-17T10:10:18.189Z,95754.16
2022-11-17T10:13:19.810Z,95767.00
2022-11-17T10:16:21.385Z,95770.09
2022-11-17T10:19:27.304Z,95770.53
2022-11-17T10:22:33.641Z,95763.75
2022-11-17T10:25:36.765Z,95750.47
2022-11-17T10:28:38.421Z,95743.72
2022-11-17T10:31:41.145Z,95737.19
2022-11-17T10:34:42.843Z,95742.28
2022-11-17T10:37:51.417Z,95734.22
2022-11-17T10:40:53.056Z,95736.97
2022-11-17T10:44:00.296Z,95742.31
2022-11-17T10:47:04.214Z,95739.84
2022-11-17T10:50:06.242Z,95734.34
2022-11-17T10:53:22.805Z,95734.09
2022-11-17T10:56:25.200Z,95739.66
2022-11-17T10:59:30.562Z,95741.25
2022-11-17T11:02:34.517Z,95748.63
2022-11-17T11:05:36.097Z,95741.75
2022-11-17T11:08:58.090Z,95740.09
2022-11-17T11:12:02.012Z,95740.78
2022-11-17T11:15:04.090Z,95744.41
2022-11-17T11:18:12.776Z,95743.31
2022-11-17T11:21:17.923Z,95743.66
2022-11-17T11:24:34.777Z,95752.06
2022-11-17T11:27:55.157Z,95744.50
2022-11-17T11:31:15.575Z,95746.09
2022-11-17T11:34:24.027Z,95756.31
2022-11-17T11:37:26.770Z,95732.94
2022-11-17T11:40:36.330Z,95753.75
2022-11-17T11:44:03.441Z,95753.41
2022-11-17T11:47:14.049Z,95758.72
2022-11-17T11:50:18.743Z,95749.22
2022-11-17T11:53:26.591Z,95755.66
2022-11-17T11:56:33.117Z,95763.25
2022-11-17T11:59:34.921Z,95752.31
2022-11-17T12:02:36.565Z,95771.72
2022-11-17T12:05:55.282Z,95772.88
2022-11-17T12:09:04.790Z,95769.53
2022-11-17T12:12:13.575Z,95772.88
2022-11-17T12:15:18.141Z,95772.88
2022-11-17T12:18:20.080Z,95772.19
2022-11-17T12:21:22.853Z,95770.22
2022-11-17T12:24:29.703Z,95793.47
2022-11-17T12:27:34.429Z,95788.91
2022-11-17T12:30:40.593Z,95796.97
2022-11-17T12:33:54.333Z,95801.09
2022-11-17T12:37:14.727Z,95798.16
2022-11-17T12:40:35.100Z,95806.91
2022-11-17T12:43:36.783Z,95805.09
2022-11-17T12:46:38.379Z,95808.09
2022-11-17T12:49:46.183Z,95791.50
2022-11-17T12:53:00.317Z,95806.00
2022-11-17T12:56:20.380Z,95801.88
2022-11-17T12:59:41.917Z,95797.56
2022-11-17T13:03:04.753Z,95807.78
2022-11-17T13:06:33.965Z,95821.06
2022-11-17T13:09:29.928Z,95823.63
2022-11-17T13:12:32.478Z,95838.81
2022-11-17T13:15:34.102Z,95832.47
2022-11-17T13:18:44.978Z,95827.06
2022-11-17T13:21:46.727Z,95837.78
2022-11-17T13:24:49.318Z,95828.88
2022-11-17T13:27:57.136Z,95832.38
2022-11-17T13:31:01.428Z,95829.63
2022-11-17T13:34:03.133Z,95834.94
2022-11-17T13:37:04.685Z,95839.34
2022-11-17T13:40:20.542Z,95843.00
2022-11-17T13:43:22.702Z,95852.84
2022-11-17T13:46:24.437Z,95852.69
2022-11-17T13:49:33.246Z,95850.63
2022-11-17T13:52:45.404Z,95858.03
2022-11-17T13:55:48.573Z,95859.81
2022-11-17T13:58:50.261Z,95855.19
2022-11-17T14:02:10.493Z,95852.94
2022-11-17T14:05:15.190Z,95867.34
2022-11-17T14:08:23.635Z,95854.31
2022-11-17T14:11:25.235Z,95852.13
2022-11-17T14:14:29.306Z,95858.56
2022-11-17T14:17:30.898Z,95858.81
2022-11-17T14:20:33.852Z,95865.56
2022-11-17T14:23:41.223Z,95856.22
2022-11-17T14:26:44.984Z,95866.84
2022-11-17T14:29:46.789Z,95856.91
2022-11-17T14:32:48.470Z,95854.59
2022-11-17T14:35:53.990Z,95875.06
2022-11-17T14:38:55.810Z,95873.78
2022-11-17T14:42:02.467Z,95891.25
2022-11-17T14:45:04.150Z,95884.06
2022-11-17T14:48:08.810Z,95885.28
2022-11-17T14:51:10.665Z,95882.53
2022-11-17T14:54:12.253Z,95890.50
2022-11-17T14:57:14.470Z,95890.28
2022-11-17T15:00:20.621Z,95893.28
2022-11-17T15:03:24.135Z,95899.63
2022-11-17T15:06:25.888Z,95903.03
2022-11-17T15:09:27.733Z,95894.22
2022-11-17T15:12:29.988Z,95901.41
2022-11-17T15:15:31.577Z,95902.53
2022-11-17T15:18:33.184Z,95910.47
2022-11-17T15:21:34.885Z,95911.50
2022-11-17T15:24:36.548Z,95906.84
2022-11-17T15:27:38.599Z,95908.63
2022-11-17T15:30:40.359Z,95912.50
2022-11-17T15:33:42.318Z,95910.94
2022-11-17T15:36:43.944Z,95911.19
2022-11-17T15:39:45.581Z,95916.25
2022-11-17T15:42:47.155Z,95910.41
2022-11-17T15:45:48.741Z,95918.38
2022-11-17T15:48:52.494Z,95916.06
2022-11-17T15:51:54.883Z,95917.84
2022-11-17T15:54:56.853Z,95924.22
2022-11-17T15:57:58.448Z,95921.38
2022-11-17T16:01:15.463Z,95920.69
2022-11-17T16:04:17.254Z,95933.03
2022-11-17T16:07:19.840Z,95931.41
2022-11-17T16:10:21.646Z,95923.13
2022-11-17T16:13:23.207Z,95920.00
2022-11-17T16:16:25.892Z,95919.91
2022-11-17T16:19:27.457Z,95923.81
2022-11-17T16:22:29.053Z,95926.22
2022-11-17T16:25:30.721Z,95919.38
2022-11-17T16:28:32.304Z,95927.00
2022-11-17T16:31:39.783Z,95925.81
2022-11-17T16:34:43.575Z,95931.53
2022-11-17T16:37:45.143Z,95933.84
2022-11-17T16:40:46.801Z,95926.69
2022-11-17T16:43:48.603Z,95934.63
2022-11-17T16:46:50.216Z,95936.84
2022-11-17T16:49:52.009Z,95932.00
2022-11-17T16:52:53.893Z,95934.19
2022-11-17T16:55:55.460Z,95928.09
2022-11-17T16:58:57.198Z,95932.00
2022-11-17T17:01:58.888Z,95933.41
2022-11-17T17:05:00.669Z,95935.31
2022-11-17T17:08:03.923Z,95940.59
2022-11-17T17:11:07.716Z,95941.47
2022-11-17T17:14:09.889Z,95940.81
2022-11-17T17:17:11.778Z,95935.84
2022-11-17T17:20:13.436Z,95945.16
2022-11-17T17:23:15.021Z,95947.44
2022-11-17T17:26:18.506Z,95945.25
2022-11-17T17:29:20.170Z,95948.56
2022-11-17T17:32:21.790Z,95949.34
2022-11-17T17:35:23.609Z,95954.31
2022-11-17T17:38:26.655Z,95954.75
2022-11-17T17:41:29.506Z,95956.63
2022-11-17T17:44:31.665Z,95958.41
2022-11-17T17:47:33.325Z,95964.81
2022-11-17T17:50:34.896Z,95963.81
2022-11-17T17:53:36.585Z,95969.44
2022-11-17T17:56:38.215Z,95970.56
2022-11-17T17:59:40.073Z,95968.34
2022-11-17T18:02:41.730Z,95967.34
2022-11-17T18:05:43.478Z,95972.88
2022-11-17T18:08:45.374Z,95971.88
2022-11-17T18:11:52.029Z,95977.09
2022-11-17T18:14:54.145Z,95974.19
2022-11-17T18:17:55.747Z,95972.75
2022-11-17T18:21:05.361Z,95977.72
2022-11-17T18:24:07.146Z,95971.56
2022-11-17T18:27:08.766Z,95965.38
2022-11-17T18:30:10.582Z,95982.47
2022-11-17T18:33:12.185Z,95980.63
2022-11-17T18:36:13.764Z,95982.16
2022-11-17T18:39:18.752Z,95978.41
2022-11-17T18:42:20.585Z,95978.41
2022-11-17T18:45:22.181Z,95979.28
2022-11-17T18:48:23.760Z,95978.63
2022-11-17T18:51:26.236Z,95981.78
2022-11-17T18:54:27.841Z,95984.03
2022-11-17T18:57:29.421Z,95995.41
2022-11-17T19:00:30.954Z,95977.94
2022-11-17T19:03:43.245Z,95986.56
2022-11-17T19:06:44.880Z,95985.91
2022-11-17T19:09:47.206Z,95986.34
2022-11-17T19:12:48.808Z,95984.91
2022-11-17T19:15:50.642Z,95988.22
2022-11-17T19:18:53.058Z,95993.94
2022-11-17T19:21:55.306Z,95989.44
2022-11-17T19:24:57.154Z,95995.84
2022-11-17T19:27:58.925Z,95994.81
2022-11-17T19:31:04.463Z,95995.63
2022-11-17T19:34:06.187Z,96004.25
2022-11-17T19:37:07.753Z,96004.91
2022-11-17T19:40:09.680Z,96008.09
2022-11-17T19:43:11.319Z,96011.09
2022-11-17T19:46:13.715Z,95999.72
2022-11-17T19:49:15.717Z,96000.13
2022-11-17T19:52:17.602Z,95994.28
2022-11-17T19:55:19.204Z,96001.59
2022-11-17T19:58:20.825Z,96005.69
2022-11-17T20:01:28.065Z,96009.56
2022-11-17T20:04:29.706Z,95997.81
2022-11-17T20:07:31.313Z,96000.13
2022-11-17T20:10:33.185Z,96001.72
2022-11-17T20:13:35.309Z,95999.06
2022-11-17T20:16:38.848Z,96003.81
2022-11-17T20:19:40.606Z,96007.22
2022-11-17T20:22:42.469Z,96013.75
2022-11-17T20:25:44.234Z,96015.75
2022-11-17T20:28:46.773Z,96016.28
2022-11-17T20:31:48.486Z,96015.91
2022-11-17T20:34:50.526Z,96022.88
2022-11-17T20:37:52.056Z,96014.47
2022-11-17T20:40:57.882Z,96016.03
2022-11-17T20:43:59.937Z,96024.47
2022-11-17T20:47:01.438Z,96024.34
2022-11-17T20:50:03.035Z,96031.19
2022-11-17T20:53:04.579Z,96030.88
2022-11-17T20:56:06.953Z,96026.00
2022-11-17T20:59:09.065Z,96024.25
2022-11-17T21:02:11.214Z,96033.63
2022-11-17T21:05:12.811Z,96026.91
2022-11-17T21:08:14.321Z,96033.63
2022-11-17T21:11:35.270Z,96032.22
2022-11-17T21:14:37.341Z,96034.09
2022-11-17T21:17:57.709Z,96028.44
2022-11-17T21:21:00.287Z,96036.63
2022-11-17T21:24:02.180Z,96041.41
2022-11-17T21:27:03.793Z,96036.47
2022-11-17T21:30:05.677Z,96036.25
2022-11-17T21:33:07.284Z,96038.91
2022-11-17T21:36:12.751Z,96037.13
2022-11-17T21:39:18.614Z,96037.78
2022-11-17T21:42:20.568Z,96039.69
2022-11-17T21:45:22.130Z,96043.69
2022-11-17T21:48:23.650Z,96049.75
2022-11-17T21:51:26.229Z,96039.72
2022-11-17T21:54:27.755Z,96037.34
2022-11-17T21:57:29.426Z,96041.69
2022-11-17T22:00:30.969Z,96041.81
2022-11-17T22:03:32.492Z,96041.41
2022-11-17T22:06:34.075Z,96044.25
2022-11-17T22:09:36.741Z,96034.66
2022-11-17T22:12:39.057Z,96028.56
2022-11-17T22:15:40.690Z,96039.63
2022-11-17T22:18:42.214Z,96034.09
2022-11-17T22:21:50.069Z,96028.38
2022-11-17T22:24:51.593Z,96033.69
2022-11-17T22:27:53.069Z,96024.16
2022-11-17T22:30:54.804Z,96030.16
2022-11-17T22:33:56.374Z,96020.63
2022-11-17T22:36:57.913Z,96017.66
2022-11-17T22:39:59.440Z,96017.84
2022-11-17T22:43:04.298Z,96027.28
2022-11-17T22:46:07.394Z,96011.00
2022-11-17T22:49:09.677Z,96016.56
2022-11-17T22:52:11.844Z,96001.75
2022-11-17T22:55:13.349Z,95997.88
2022-11-17T22:58:16.902Z,95997.88
2022-11-17T23:01:18.517Z,96003.63
2022-11-17T23:04:20.029Z,96011.38
2022-11-17T23:07:22.307Z,96002.94
2022-11-17T23:10:23.885Z,96004.84
2022-11-17T23:13:25.442Z,96002.94
2022-11-17T23:16:27.266Z,96004.06
2022-11-17T23:19:28.769Z,96014.38
2022-11-17T23:22:30.269Z,96008.59
2022-11-17T23:25:31.834Z,96017.78
2022-11-17T23:28:33.354Z,96009.81
2022-11-17T23:31:34.945Z,96010.72
2022-11-17T23:34:36.524Z,96017.88
2022-11-17T23:37:38.175Z,96019.44
2022-11-17T23:40:39.715Z,96027.41
2022-11-17T23:43:41.239Z,96013.91
2022-11-17T23:46:43.110Z,96024.63
2022-11-17T23:49:44.622Z,96023.28
2022-11-17T23:52:46.208Z,96030.56
2022-11-17T23:55:56.677Z,96037.84
2022-11-17T23:58:58.240Z,96038.72
